createdAt,value
2022-09-11T00:00:02.823Z,12.53
2022-09-11T00:01:29.604Z,12.54
2022-09-11T00:02:31.283Z,12.56
2022-09-11T00:03:34.501Z,12.57
2022-09-11T00:04:36.501Z,12.57
2022-09-11T00:05:40.474Z,12.55
2022-09-11T00:06:43.208Z,12.51
2022-09-11T00:07:44.828Z,12.49
2022-09-11T00:08:49.342Z,12.46
2022-09-11T00:09:50.956Z,12.43
2022-09-11T00:10:53.135Z,12.42
2022-09-11T00:11:54.980Z,12.40
2022-09-11T00:12:56.635Z,12.38
2022-09-11T00:13:58.947Z,12.36
2022-09-11T00:15:00.770Z,12.34
2022-09-11T00:16:07.241Z,12.34
2022-09-11T00:17:09.075Z,12.34
2022-09-11T00:18:15.026Z,12.35
2022-09-11T00:19:20.025Z,12.36
2022-09-11T00:20:23.260Z,12.36
2022-09-11T00:21:26.449Z,12.36
2022-09-11T00:22:28.274Z,12.37
2022-09-11T00:23:30.072Z,12.37
2022-09-11T00:24:32.217Z,12.37
2022-09-11T00:25:35.377Z,12.37
2022-09-11T00:26:38.515Z,12.38
2022-09-11T00:27:40.290Z,12.40
2022-09-11T00:28:41.981Z,12.41
2022-09-11T00:29:43.714Z,12.42
2022-09-11T00:30:47.051Z,12.42
2022-09-11T00:31:49.176Z,12.43
2022-09-11T00:32:50.977Z,12.42
2022-09-11T00:33:52.637Z,12.41
2022-09-11T00:34:54.367Z,12.39
2022-09-11T00:36:01.593Z,12.40
2022-09-11T00:37:03.566Z,12.40
2022-09-11T00:38:05.748Z,12.42
2022-09-11T00:39:07.970Z,12.43
2022-09-11T00:40:10.180Z,12.44
2022-09-11T00:41:18.919Z,12.44
2022-09-11T00:42:20.722Z,12.45
2022-09-11T00:43:22.746Z,12.45
2022-09-11T00:44:24.653Z,12.43
2022-09-11T00:45:28.346Z,12.43
2022-09-11T00:46:51.602Z,12.43
2022-09-11T00:47:59.466Z,12.41
2022-09-11T00:49:05.966Z,12.41
2022-09-11T00:50:19.472Z,12.43
2022-09-11T00:51:28.408Z,12.44
2022-09-11T00:52:36.744Z,12.44
2022-09-11T00:53:38.757Z,12.45
2022-09-11T00:54:49.645Z,12.46
2022-09-11T00:56:00.253Z,12.44
2022-09-11T00:57:07.466Z,12.43
2022-09-11T00:58:17.464Z,12.43
2022-09-11T00:59:27.957Z,12.43
2022-09-11T01:00:30.097Z,12.45
2022-09-11T01:01:32.299Z,12.46
2022-09-11T01:02:38.486Z,12.46
2022-09-11T01:03:40.776Z,12.46
2022-09-11T01:04:42.428Z,12.45
2022-09-11T01:05:44.596Z,12.45
2022-09-11T01:06:46.863Z,12.46
2022-09-11T01:07:54.388Z,12.46
2022-09-11T01:08:56.029Z,12.45
2022-09-11T01:09:59.852Z,12.46
2022-09-11T01:11:31.906Z,12.47
2022-09-11T01:12:51.589Z,12.48
2022-09-11T01:14:12.262Z,12.48
2022-09-11T01:15:36.206Z,12.47
2022-09-11T01:17:06.502Z,12.47
2022-09-11T01:18:17.066Z,12.45
2022-09-11T01:19:43.636Z,12.45
2022-09-11T01:21:03.302Z,12.45
2022-09-11T01:22:30.180Z,12.46
2022-09-11T01:23:48.110Z,12.48
2022-09-11T01:25:05.455Z,12.49
2022-09-11T01:26:37.442Z,12.47
2022-09-11T01:27:50.698Z,12.47
2022-09-11T01:29:19.336Z,12.46
2022-09-11T01:30:24.714Z,12.45
2022-09-11T01:31:41.057Z,12.43
2022-09-11T01:33:15.892Z,12.43
2022-09-11T01:34:45.701Z,12.44
2022-09-11T01:36:04.042Z,12.46
2022-09-11T01:37:44.766Z,12.47
2022-09-11T01:39:02.565Z,12.48
2022-09-11T01:40:16.511Z,12.47
2022-09-11T01:41:41.484Z,12.46
2022-09-11T01:42:49.763Z,12.46
2022-09-11T01:44:13.923Z,12.45
2022-09-11T01:45:17.151Z,12.44
2022-09-11T01:46:24.829Z,12.44
2022-09-11T01:47:33.206Z,12.44
2022-09-11T01:48:44.725Z,12.43
2022-09-11T01:49:58.816Z,12.43
2022-09-11T01:51:04.470Z,12.42
2022-09-11T01:52:16.508Z,12.41
2022-09-11T01:53:25.754Z,12.42
2022-09-11T01:54:35.266Z,12.41
2022-09-11T01:55:43.262Z,12.38
2022-09-11T01:56:57.346Z,12.37
2022-09-11T01:58:07.083Z,12.37
2022-09-11T01:59:16.116Z,12.38
2022-09-11T02:00:18.613Z,12.39
2022-09-11T02:01:35.308Z,12.37
2022-09-11T02:03:03.938Z,12.36
2022-09-11T02:04:10.965Z,12.34
2022-09-11T02:05:24.022Z,12.32
2022-09-11T02:06:36.616Z,12.31
2022-09-11T02:07:45.699Z,12.31
2022-09-11T02:08:56.749Z,12.29
2022-09-11T02:10:10.138Z,12.28
2022-09-11T02:11:16.390Z,12.27
2022-09-11T02:12:24.227Z,12.26
2022-09-11T02:13:41.090Z,12.27
2022-09-11T02:14:50.900Z,12.27
2022-09-11T02:16:16.712Z,12.28
2022-09-11T02:17:31.562Z,12.28
2022-09-11T02:18:45.404Z,12.31
2022-09-11T02:19:47.857Z,12.34
2022-09-11T02:20:51.807Z,12.36
2022-09-11T02:21:53.431Z,12.35
2022-09-11T02:22:55.499Z,12.35
2022-09-11T02:24:00.374Z,12.34
2022-09-11T02:25:03.101Z,12.34
2022-09-11T02:26:07.846Z,12.33
2022-09-11T02:27:16.879Z,12.32
2022-09-11T02:28:18.551Z,12.32
2022-09-11T02:29:21.210Z,12.33
2022-09-11T02:30:22.843Z,12.34
2022-09-11T02:31:25.784Z,12.36
2022-09-11T02:32:33.906Z,12.38
2022-09-11T02:33:37.540Z,12.39
2022-09-11T02:34:42.014Z,12.40
2022-09-11T02:35:52.132Z,12.40
2022-09-11T02:37:11.040Z,12.40
2022-09-11T02:38:32.885Z,12.42
2022-09-11T02:39:41.718Z,12.42
2022-09-11T02:41:01.413Z,12.42
2022-09-11T02:42:28.847Z,12.40
2022-09-11T02:43:39.716Z,12.39
2022-09-11T02:44:56.255Z,12.39
2022-09-11T02:46:18.581Z,12.37
2022-09-11T02:47:40.601Z,12.38
2022-09-11T02:49:00.449Z,12.38
2022-09-11T02:50:07.987Z,12.37
2022-09-11T02:51:29.714Z,12.36
2022-09-11T02:52:53.614Z,12.37
2022-09-11T02:53:58.196Z,12.38
2022-09-11T02:55:24.151Z,12.37
2022-09-11T02:56:37.328Z,12.37
2022-09-11T02:58:05.851Z,12.37
2022-09-11T02:59:22.578Z,12.37
2022-09-11T03:00:24.650Z,12.38
2022-09-11T03:01:26.358Z,12.38
2022-09-11T03:02:31.180Z,12.37
2022-09-11T03:03:40.866Z,12.36
2022-09-11T03:04:42.678Z,12.35
2022-09-11T03:05:44.382Z,12.34
2022-09-11T03:06:48.481Z,12.34
2022-09-11T03:07:50.537Z,12.33
2022-09-11T03:08:52.334Z,12.34
2022-09-11T03:09:54.591Z,12.32
2022-09-11T03:10:57.045Z,12.31
2022-09-11T03:11:59.335Z,12.30
2022-09-11T03:13:01.032Z,12.29
2022-09-11T03:14:05.681Z,12.30
2022-09-11T03:15:10.362Z,12.27
2022-09-11T03:16:12.591Z,12.28
2022-09-11T03:17:14.321Z,12.27
2022-09-11T03:18:16.217Z,12.26
2022-09-11T03:19:17.915Z,12.24
2022-09-11T03:20:20.182Z,12.22
2022-09-11T03:21:21.876Z,12.20
2022-09-11T03:22:24.334Z,12.20
2022-09-11T03:23:27.618Z,12.20
2022-09-11T03:24:29.689Z,12.19
2022-09-11T03:25:31.580Z,12.19
2022-09-11T03:26:33.801Z,12.19
2022-09-11T03:27:35.423Z,12.18
2022-09-11T03:28:37.126Z,12.17
2022-09-11T03:29:41.756Z,12.15
2022-09-11T03:30:43.393Z,12.13
2022-09-11T03:31:45.133Z,12.11
2022-09-11T03:32:48.072Z,12.11
2022-09-11T03:33:49.740Z,12.08
2022-09-11T03:34:51.482Z,12.06
2022-09-11T03:35:54.006Z,12.03
2022-09-11T03:36:55.672Z,12.01
2022-09-11T03:37:57.670Z,11.99
2022-09-11T03:38:59.310Z,11.98
2022-09-11T03:40:01.655Z,11.95
2022-09-11T03:41:04.042Z,11.93
2022-09-11T03:42:06.484Z,11.91
2022-09-11T03:43:09.467Z,11.91
2022-09-11T03:44:12.908Z,11.90
2022-09-11T03:45:14.925Z,11.91
2022-09-11T03:46:17.690Z,11.90
2022-09-11T03:47:22.089Z,11.88
2022-09-11T03:48:25.202Z,11.86
2022-09-11T03:49:26.960Z,11.86
2022-09-11T03:50:29.562Z,11.84
2022-09-11T03:51:32.061Z,11.84
2022-09-11T03:52:34.697Z,11.84
2022-09-11T03:53:37.573Z,11.84
2022-09-11T03:54:39.832Z,11.84
2022-09-11T03:55:41.621Z,11.84
2022-09-11T03:56:43.397Z,11.84
2022-09-11T03:57:45.079Z,11.84
2022-09-11T03:58:46.854Z,11.85
2022-09-11T03:59:49.517Z,11.85
2022-09-11T04:00:52.372Z,11.84
2022-09-11T04:01:54.047Z,11.84
2022-09-11T04:02:56.027Z,11.82
2022-09-11T04:04:07.646Z,11.83
2022-09-11T04:05:12.965Z,11.82
2022-09-11T04:06:15.179Z,11.81
2022-09-11T04:07:17.757Z,11.80
2022-09-11T04:08:19.450Z,11.79
2022-09-11T04:09:21.233Z,11.78
2022-09-11T04:10:24.488Z,11.77
2022-09-11T04:11:26.265Z,11.78
2022-09-11T04:12:29.564Z,11.78
2022-09-11T04:13:34.269Z,11.77
2022-09-11T04:14:37.174Z,11.76
2022-09-11T04:15:40.287Z,11.76
2022-09-11T04:16:42.498Z,11.75
2022-09-11T04:17:44.156Z,11.75
2022-09-11T04:18:47.162Z,11.76
2022-09-11T04:19:49.433Z,11.75
2022-09-11T04:20:51.102Z,11.74
2022-09-11T04:21:54.406Z,11.74
2022-09-11T04:22:56.273Z,11.73
2022-09-11T04:24:00.310Z,11.73
2022-09-11T04:25:02.576Z,11.74
2022-09-11T04:26:15.799Z,11.73
2022-09-11T04:27:18.381Z,11.75
2022-09-11T04:28:22.479Z,11.76
2022-09-11T04:29:24.199Z,11.77
2022-09-11T04:30:25.945Z,11.78
2022-09-11T04:31:28.059Z,11.77
2022-09-11T04:32:29.813Z,11.79
2022-09-11T04:33:31.469Z,11.80
2022-09-11T04:34:33.117Z,11.78
2022-09-11T04:35:40.346Z,11.77
2022-09-11T04:36:42.039Z,11.78
2022-09-11T04:37:46.710Z,11.77
2022-09-11T04:38:55.141Z,11.77
2022-09-11T04:39:56.830Z,11.76
2022-09-11T04:41:00.911Z,11.76
2022-09-11T04:42:04.326Z,11.75
2022-09-11T04:43:06.562Z,11.74
2022-09-11T04:44:08.493Z,11.73
2022-09-11T04:45:16.195Z,11.73
2022-09-11T04:46:18.268Z,11.73
2022-09-11T04:47:20.802Z,11.71
2022-09-11T04:48:22.444Z,11.70
2022-09-11T04:49:24.311Z,11.70
2022-09-11T04:50:26.423Z,11.70
2022-09-11T04:51:45.201Z,11.72
2022-09-11T04:52:48.622Z,11.74
2022-09-11T04:53:52.118Z,11.75
2022-09-11T04:54:54.163Z,11.76
2022-09-11T04:56:03.535Z,11.77
2022-09-11T04:57:05.889Z,11.76
2022-09-11T04:58:10.068Z,11.75
2022-09-11T04:59:15.939Z,11.73
2022-09-11T05:00:21.122Z,11.74
2022-09-11T05:01:24.971Z,11.75
2022-09-11T05:02:28.439Z,11.75
2022-09-11T05:03:30.162Z,11.74
2022-09-11T05:04:32.669Z,11.75
2022-09-11T05:05:35.507Z,11.72
2022-09-11T05:06:38.049Z,11.71
2022-09-11T05:07:42.593Z,11.70
2022-09-11T05:08:46.671Z,11.70
2022-09-11T05:09:50.211Z,11.70
2022-09-11T05:10:53.144Z,11.73
2022-09-11T05:11:56.977Z,11.74
2022-09-11T05:12:59.558Z,11.74
2022-09-11T05:14:01.749Z,11.73
2022-09-11T05:15:05.298Z,11.74
2022-09-11T05:16:17.864Z,11.71
2022-09-11T05:17:19.607Z,11.71
2022-09-11T05:18:22.078Z,11.72
2022-09-11T05:19:26.161Z,11.75
2022-09-11T05:20:28.031Z,11.77
2022-09-11T05:21:31.884Z,11.79
2022-09-11T05:22:33.553Z,11.79
2022-09-11T05:23:36.546Z,11.80
2022-09-11T05:24:39.395Z,11.82
2022-09-11T05:25:41.117Z,11.85
2022-09-11T05:26:43.353Z,11.86
2022-09-11T05:27:45.546Z,11.87
2022-09-11T05:28:47.443Z,11.88
2022-09-11T05:29:49.062Z,11.88
2022-09-11T05:30:51.032Z,11.88
2022-09-11T05:31:53.236Z,11.89
2022-09-11T05:32:56.910Z,11.90
2022-09-11T05:34:00.603Z,11.91
2022-09-11T05:35:02.329Z,11.92
2022-09-11T05:36:05.549Z,11.92
2022-09-11T05:37:07.621Z,11.92
2022-09-11T05:38:14.089Z,11.91
2022-09-11T05:39:15.695Z,11.90
2022-09-11T05:40:17.605Z,11.91
2022-09-11T05:41:21.077Z,11.93
2022-09-11T05:42:23.016Z,11.93
2022-09-11T05:43:27.331Z,11.93
2022-09-11T05:44:30.981Z,11.95
2022-09-11T05:45:32.800Z,11.95
2022-09-11T05:46:34.538Z,11.96
2022-09-11T05:47:37.429Z,11.97
2022-09-11T05:48:39.743Z,11.98
2022-09-11T05:49:41.393Z,11.99
2022-09-11T05:50:43.374Z,11.99
2022-09-11T05:51:45.178Z,11.98
2022-09-11T05:52:47.037Z,11.97
2022-09-11T05:53:52.806Z,11.97
2022-09-11T05:54:54.513Z,11.98
2022-09-11T05:55:56.322Z,11.99
2022-09-11T05:56:58.194Z,11.99
2022-09-11T05:58:00.533Z,12.00
2022-09-11T05:59:02.923Z,12.01
2022-09-11T06:00:09.742Z,12.01
2022-09-11T06:01:29.291Z,12.01
2022-09-11T06:02:39.310Z,12.03
2022-09-11T06:03:41.107Z,12.04
2022-09-11T06:04:44.230Z,12.05
2022-09-11T06:05:46.627Z,12.04
2022-09-11T06:06:48.733Z,12.04
2022-09-11T06:07:51.390Z,12.04
2022-09-11T06:08:53.683Z,12.04
2022-09-11T06:09:58.665Z,12.07
2022-09-11T06:11:07.535Z,12.08
2022-09-11T06:12:12.248Z,12.11
2022-09-11T06:13:17.946Z,12.11
2022-09-11T06:14:21.489Z,12.10
2022-09-11T06:15:45.653Z,12.11
2022-09-11T06:16:48.252Z,12.10
2022-09-11T06:17:50.410Z,12.09
2022-09-11T06:18:54.271Z,12.10
2022-09-11T06:19:56.165Z,12.11
2022-09-11T06:21:09.886Z,12.12
2022-09-11T06:22:16.876Z,12.13
2022-09-11T06:23:19.951Z,12.15
2022-09-11T06:24:21.942Z,12.17
2022-09-11T06:25:25.271Z,12.17
2022-09-11T06:26:27.466Z,12.17
2022-09-11T06:27:29.135Z,12.18
2022-09-11T06:28:30.834Z,12.20
2022-09-11T06:29:33.033Z,12.21
2022-09-11T06:30:35.425Z,12.22
2022-09-11T06:31:37.321Z,12.24
2022-09-11T06:32:40.082Z,12.25
2022-09-11T06:33:42.839Z,12.26
2022-09-11T06:34:44.532Z,12.28
2022-09-11T06:36:01.465Z,12.30
2022-09-11T06:37:03.777Z,12.32
2022-09-11T06:38:05.988Z,12.34
2022-09-11T06:39:08.391Z,12.37
2022-09-11T06:40:13.302Z,12.40
2022-09-11T06:41:16.731Z,12.40
2022-09-11T06:42:19.231Z,12.41
2022-09-11T06:43:21.133Z,12.43
2022-09-11T06:44:23.758Z,12.44
2022-09-11T06:45:31.129Z,12.44
2022-09-11T06:46:32.767Z,12.45
2022-09-11T06:47:35.180Z,12.46
2022-09-11T06:48:37.778Z,12.47
2022-09-11T06:49:40.446Z,12.50
2022-09-11T06:51:07.991Z,12.51
2022-09-11T06:52:09.639Z,12.49
2022-09-11T06:53:14.224Z,12.49
2022-09-11T06:54:22.729Z,12.49
2022-09-11T06:55:24.561Z,12.49
2022-09-11T06:56:34.734Z,12.49
2022-09-11T06:57:41.228Z,12.50
2022-09-11T06:58:46.006Z,12.50
2022-09-11T06:59:47.794Z,12.49
2022-09-11T07:00:50.333Z,12.48
2022-09-11T07:01:52.812Z,12.46
2022-09-11T07:02:56.888Z,12.44
2022-09-11T07:03:59.501Z,12.44
2022-09-11T07:05:01.232Z,12.44
2022-09-11T07:06:04.048Z,12.45
2022-09-11T07:07:05.722Z,12.47
2022-09-11T07:08:07.702Z,12.48
2022-09-11T07:09:11.988Z,12.49
2022-09-11T07:10:25.612Z,12.50
2022-09-11T07:11:32.770Z,12.54
2022-09-11T07:12:34.445Z,12.56
2022-09-11T07:13:38.095Z,12.59
2022-09-11T07:14:41.311Z,12.63
2022-09-11T07:15:50.294Z,12.65
2022-09-11T07:16:55.298Z,12.68
2022-09-11T07:17:57.136Z,12.70
2022-09-11T07:18:59.286Z,12.70
2022-09-11T07:20:02.055Z,12.69
2022-09-11T07:21:08.918Z,12.68
2022-09-11T07:22:10.530Z,12.69
2022-09-11T07:23:12.171Z,12.71
2022-09-11T07:24:13.785Z,12.72
2022-09-11T07:25:18.380Z,12.70
2022-09-11T07:26:24.126Z,12.69
2022-09-11T07:27:28.689Z,12.70
2022-09-11T07:28:30.959Z,12.70
2022-09-11T07:29:33.920Z,12.72
2022-09-11T07:30:35.997Z,12.77
2022-09-11T07:31:38.840Z,12.81
2022-09-11T07:32:41.199Z,12.83
2022-09-11T07:33:46.052Z,12.85
2022-09-11T07:34:48.336Z,12.87
2022-09-11T07:35:49.935Z,12.88
2022-09-11T07:36:51.887Z,12.88
2022-09-11T07:37:53.850Z,12.87
2022-09-11T07:39:00.262Z,12.85
2022-09-11T07:40:09.398Z,12.84
2022-09-11T07:41:11.243Z,12.81
2022-09-11T07:42:13.027Z,12.80
2022-09-11T07:43:15.568Z,12.78
2022-09-11T07:44:18.561Z,12.79
2022-09-11T07:45:22.878Z,12.79
2022-09-11T07:46:25.902Z,12.80
2022-09-11T07:47:28.242Z,12.81
2022-09-11T07:48:30.581Z,12.81
2022-09-11T07:49:32.217Z,12.80
2022-09-11T07:50:33.860Z,12.79
2022-09-11T07:51:37.849Z,12.78
2022-09-11T07:52:42.227Z,12.77
2022-09-11T07:53:56.391Z,12.77
2022-09-11T07:55:00.119Z,12.77
2022-09-11T07:56:07.839Z,12.74
2022-09-11T07:57:09.518Z,12.72
2022-09-11T07:58:11.495Z,12.73
2022-09-11T07:59:13.354Z,12.77
2022-09-11T08:00:18.642Z,12.81
2022-09-11T08:01:29.821Z,12.86
2022-09-11T08:02:32.180Z,12.92
2022-09-11T08:03:35.637Z,12.95
2022-09-11T08:04:38.136Z,12.97
2022-09-11T08:05:40.914Z,12.94
2022-09-11T08:06:46.396Z,12.92
2022-09-11T08:07:55.688Z,12.91
2022-09-11T08:09:01.710Z,12.90
2022-09-11T08:10:26.084Z,12.90
2022-09-11T08:11:29.408Z,12.91
2022-09-11T08:12:32.260Z,12.90
2022-09-11T08:13:35.141Z,12.90
2022-09-11T08:14:36.978Z,12.90
2022-09-11T08:15:48.080Z,12.88
2022-09-11T08:16:50.239Z,12.86
2022-09-11T08:17:52.032Z,12.85
2022-09-11T08:18:54.791Z,12.86
2022-09-11T08:19:57.845Z,12.83
2022-09-11T08:21:07.623Z,12.81
2022-09-11T08:22:11.301Z,12.81
2022-09-11T08:23:18.629Z,12.79
2022-09-11T08:24:21.381Z,12.79
2022-09-11T08:25:24.446Z,12.79
2022-09-11T08:26:29.946Z,12.79
2022-09-11T08:27:32.690Z,12.79
2022-09-11T08:28:37.018Z,12.80
2022-09-11T08:29:39.202Z,12.80
2022-09-11T08:30:40.962Z,12.80
2022-09-11T08:31:43.919Z,12.78
2022-09-11T08:32:46.589Z,12.74
2022-09-11T08:33:49.341Z,12.74
2022-09-11T08:34:52.090Z,12.77
2022-09-11T08:35:57.833Z,12.79
2022-09-11T08:36:59.774Z,12.83
2022-09-11T08:38:03.251Z,12.87
2022-09-11T08:39:05.365Z,12.90
2022-09-11T08:40:11.721Z,12.93
2022-09-11T08:41:41.241Z,12.94
2022-09-11T08:42:47.272Z,12.98
2022-09-11T08:43:58.970Z,13.01
2022-09-11T08:45:04.654Z,13.05
2022-09-11T08:46:13.372Z,13.08
2022-09-11T08:47:20.166Z,13.12
2022-09-11T08:48:33.246Z,13.15
2022-09-11T08:49:46.164Z,13.17
2022-09-11T08:50:49.470Z,13.16
2022-09-11T08:51:56.284Z,13.16
2022-09-11T08:53:02.652Z,13.16
2022-09-11T08:54:06.743Z,13.14
2022-09-11T08:55:17.235Z,13.11
2022-09-11T08:56:22.672Z,13.08
2022-09-11T08:57:33.905Z,13.05
2022-09-11T08:59:04.369Z,13.04
2022-09-11T09:00:27.557Z,13.00
2022-09-11T09:01:40.104Z,12.97
2022-09-11T09:03:21.189Z,12.95
2022-09-11T09:04:45.449Z,12.98
2022-09-11T09:06:25.417Z,13.03
2022-09-11T09:07:28.264Z,13.15
2022-09-11T09:08:55.422Z,13.24
2022-09-11T09:10:21.895Z,13.33
2022-09-11T09:11:37.315Z,13.38
2022-09-11T09:13:02.510Z,13.43
2022-09-11T09:14:41.406Z,13.46
2022-09-11T09:15:55.267Z,13.52
2022-09-11T09:17:03.494Z,13.57
2022-09-11T09:18:26.729Z,13.59
2022-09-11T09:19:38.492Z,13.58
2022-09-11T09:20:51.790Z,13.60
2022-09-11T09:22:18.238Z,13.60
2022-09-11T09:23:27.166Z,13.58
2022-09-11T09:24:38.029Z,13.58
2022-09-11T09:25:42.687Z,13.56
2022-09-11T09:26:50.121Z,13.54
2022-09-11T09:28:18.131Z,13.51
2022-09-11T09:29:25.433Z,13.49
2022-09-11T09:30:46.579Z,13.52
2022-09-11T09:31:57.577Z,13.54
2022-09-11T09:33:14.125Z,13.52
2022-09-11T09:34:19.760Z,13.53
2022-09-11T09:35:28.722Z,13.54
2022-09-11T09:36:39.300Z,13.54
2022-09-11T09:37:41.808Z,13.53
2022-09-11T09:38:44.378Z,13.51
2022-09-11T09:39:46.966Z,13.50
2022-09-11T09:41:10.891Z,13.49
2022-09-11T09:42:40.529Z,13.50
2022-09-11T09:43:53.118Z,13.54
2022-09-11T09:45:32.528Z,13.57
2022-09-11T09:46:50.189Z,13.57
2022-09-11T09:47:53.430Z,13.53
2022-09-11T09:48:56.053Z,13.49
2022-09-11T09:49:58.471Z,13.44
2022-09-11T09:51:03.335Z,13.39
2022-09-11T09:52:27.068Z,13.38
2022-09-11T09:53:49.944Z,13.34
2022-09-11T09:55:01.641Z,13.31
2022-09-11T09:56:06.144Z,13.30
2022-09-11T09:57:11.627Z,13.31
2022-09-11T09:58:14.698Z,13.35
2022-09-11T09:59:32.922Z,13.39
2022-09-11T10:00:38.178Z,13.46
2022-09-11T10:01:40.035Z,13.52
2022-09-11T10:02:58.570Z,13.56
2022-09-11T10:04:13.818Z,13.61
2022-09-11T10:05:18.070Z,13.66
2022-09-11T10:06:22.023Z,13.66
2022-09-11T10:07:24.395Z,13.62
2022-09-11T10:08:33.769Z,13.59
2022-09-11T10:09:35.714Z,13.59
2022-09-11T10:10:40.600Z,13.58
2022-09-11T10:11:43.279Z,13.58
2022-09-11T10:12:45.705Z,13.54
2022-09-11T10:13:55.656Z,13.49
2022-09-11T10:15:03.222Z,13.45
2022-09-11T10:16:21.057Z,13.39
2022-09-11T10:17:31.129Z,13.35
2022-09-11T10:18:37.513Z,13.33
2022-09-11T10:19:43.219Z,13.30
2022-09-11T10:20:44.831Z,13.25
2022-09-11T10:21:46.473Z,13.22
2022-09-11T10:22:49.550Z,13.21
2022-09-11T10:23:55.775Z,13.18
2022-09-11T10:25:03.722Z,13.18
2022-09-11T10:26:05.413Z,13.17
2022-09-11T10:27:12.964Z,13.17
2022-09-11T10:28:22.969Z,13.19
2022-09-11T10:29:29.940Z,13.18
2022-09-11T10:30:53.398Z,13.16
2022-09-11T10:32:02.468Z,13.15
2022-09-11T10:33:15.693Z,13.15
2022-09-11T10:34:20.511Z,13.16
2022-09-11T10:35:27.861Z,13.16
2022-09-11T10:36:31.120Z,13.16
2022-09-11T10:37:34.229Z,13.17
2022-09-11T10:38:47.165Z,13.17
2022-09-11T10:39:50.197Z,13.23
2022-09-11T10:41:22.244Z,13.27
2022-09-11T10:42:28.802Z,13.35
2022-09-11T10:43:42.284Z,13.37
2022-09-11T10:44:47.656Z,13.45
2022-09-11T10:46:03.867Z,13.46
2022-09-11T10:47:27.549Z,13.41
2022-09-11T10:48:29.363Z,13.35
2022-09-11T10:49:31.134Z,13.32
2022-09-11T10:50:34.301Z,13.30
2022-09-11T10:51:43.112Z,13.29
2022-09-11T10:52:53.629Z,13.28
2022-09-11T10:54:21.773Z,13.26
2022-09-11T10:55:29.405Z,13.22
2022-09-11T10:56:40.057Z,13.19
2022-09-11T10:57:47.486Z,13.16
2022-09-11T10:58:58.184Z,13.15
2022-09-11T11:00:26.458Z,13.15
2022-09-11T11:01:28.236Z,13.15
2022-09-11T11:02:34.205Z,13.15
2022-09-11T11:03:36.382Z,13.15
2022-09-11T11:04:38.073Z,13.14
2022-09-11T11:06:09.989Z,13.13
2022-09-11T11:07:58.136Z,13.14
2022-09-11T11:09:30.974Z,13.18
2022-09-11T11:10:39.184Z,13.21
2022-09-11T11:11:52.628Z,13.23
2022-09-11T11:13:18.191Z,13.23
2022-09-11T11:14:41.880Z,13.30
2022-09-11T11:15:58.510Z,13.42
2022-09-11T11:17:08.304Z,13.56
2022-09-11T11:18:31.522Z,13.65
2022-09-11T11:19:47.153Z,13.71
2022-09-11T11:21:03.717Z,13.75
2022-09-11T11:22:39.747Z,13.78
2022-09-11T11:24:09.031Z,13.78
2022-09-11T11:25:54.640Z,13.74
2022-09-11T11:27:27.663Z,13.65
2022-09-11T11:28:44.529Z,13.58
2022-09-11T11:30:20.801Z,13.50
2022-09-11T11:31:51.748Z,13.36
2022-09-11T11:33:08.318Z,13.29
2022-09-11T11:34:37.092Z,13.24
2022-09-11T11:35:47.009Z,13.18
2022-09-11T11:37:01.569Z,13.14
2022-09-11T11:38:20.595Z,13.13
2022-09-11T11:39:39.484Z,13.17
2022-09-11T11:40:53.369Z,13.30
2022-09-11T11:41:54.874Z,13.44
2022-09-11T11:43:05.351Z,13.49
2022-09-11T11:44:17.309Z,13.49
2022-09-11T11:45:21.526Z,13.51
2022-09-11T11:46:43.428Z,13.55
2022-09-11T11:47:48.773Z,13.64
2022-09-11T11:48:59.320Z,13.75
2022-09-11T11:50:29.849Z,13.88
2022-09-11T11:52:00.621Z,14.13
2022-09-11T11:53:15.101Z,14.53
2022-09-11T11:54:52.315Z,14.80
2022-09-11T11:56:03.812Z,15.37
2022-09-11T11:57:22.265Z,15.63
2022-09-11T11:58:40.968Z,15.70
2022-09-11T11:59:58.393Z,15.68
2022-09-11T12:01:05.097Z,15.52
2022-09-11T12:02:09.757Z,15.37
2022-09-11T12:03:18.381Z,15.20
2022-09-11T12:04:44.793Z,15.01
2022-09-11T12:05:46.431Z,14.84
2022-09-11T12:06:48.360Z,14.82
2022-09-11T12:07:51.315Z,14.98
2022-09-11T12:08:53.279Z,15.14
2022-09-11T12:09:58.753Z,15.32
2022-09-11T12:11:07.874Z,15.50
2022-09-11T12:12:09.946Z,15.68
2022-09-11T12:13:15.898Z,15.91
2022-09-11T12:14:27.907Z,15.98
2022-09-11T12:15:34.270Z,16.08
2022-09-11T12:16:36.556Z,16.18
2022-09-11T12:17:40.168Z,16.21
2022-09-11T12:19:14.182Z,16.21
2022-09-11T12:20:43.226Z,16.25
2022-09-11T12:21:53.824Z,16.44
2022-09-11T12:22:55.969Z,16.46
2022-09-11T12:23:57.470Z,16.43
2022-09-11T12:24:59.424Z,16.32
2022-09-11T12:26:08.578Z,16.19
2022-09-11T12:27:35.507Z,16.02
2022-09-11T12:28:37.911Z,15.96
2022-09-11T12:29:54.760Z,15.90
2022-09-11T12:31:07.683Z,15.84
2022-09-11T12:32:29.031Z,15.75
2022-09-11T12:33:48.476Z,15.63
2022-09-11T12:34:50.005Z,15.52
2022-09-11T12:35:53.916Z,15.45
2022-09-11T12:37:12.516Z,15.38
2022-09-11T12:38:40.698Z,15.29
2022-09-11T12:39:54.063Z,15.16
2022-09-11T12:41:01.986Z,15.06
2022-09-11T12:42:25.345Z,15.01
2022-09-11T12:43:30.570Z,15.03
2022-09-11T12:44:52.224Z,15.01
2022-09-11T12:45:54.699Z,14.92
2022-09-11T12:46:56.277Z,14.83
2022-09-11T12:48:15.504Z,14.73
2022-09-11T12:49:23.143Z,14.66
2022-09-11T12:50:28.774Z,14.63
2022-09-11T12:51:38.175Z,14.60
2022-09-11T12:52:51.023Z,14.54
2022-09-11T12:54:00.840Z,14.50
2022-09-11T12:55:26.761Z,14.46
2022-09-11T12:56:36.258Z,14.41
2022-09-11T12:57:38.717Z,14.42
2022-09-11T12:58:45.014Z,14.46
2022-09-11T12:59:56.274Z,14.53
2022-09-11T13:01:22.953Z,14.60
2022-09-11T13:02:39.448Z,14.61
2022-09-11T13:04:09.094Z,14.58
2022-09-11T13:05:34.475Z,14.59
2022-09-11T13:07:04.065Z,14.56
2022-09-11T13:08:22.241Z,14.59
2022-09-11T13:09:36.120Z,14.78
2022-09-11T13:10:39.258Z,15.12
2022-09-11T13:11:49.909Z,15.41
2022-09-11T13:13:44.018Z,15.92
2022-09-11T13:14:51.667Z,16.39
2022-09-11T13:15:57.257Z,16.78
2022-09-11T13:17:01.608Z,16.90
2022-09-11T13:18:24.002Z,17.09
2022-09-11T13:19:37.446Z,17.14
2022-09-11T13:20:40.563Z,17.07
2022-09-11T13:21:42.786Z,17.09
2022-09-11T13:22:47.574Z,17.29
2022-09-11T13:23:50.992Z,17.42
2022-09-11T13:25:14.465Z,17.59
2022-09-11T13:26:26.362Z,17.93
2022-09-11T13:27:28.351Z,18.26
2022-09-11T13:28:31.709Z,18.48
2022-09-11T13:29:37.406Z,18.66
2022-09-11T13:31:02.093Z,18.82
2022-09-11T13:32:11.464Z,19.02
2022-09-11T13:33:21.690Z,19.18
2022-09-11T13:34:27.767Z,19.43
2022-09-11T13:35:30.063Z,19.72
2022-09-11T13:36:35.968Z,20.02
2022-09-11T13:37:45.445Z,20.34
2022-09-11T13:38:54.446Z,20.57
2022-09-11T13:39:56.248Z,20.64
2022-09-11T13:41:18.198Z,20.70
2022-09-11T13:42:23.130Z,20.85
2022-09-11T13:43:32.100Z,20.97
2022-09-11T13:44:47.026Z,20.81
2022-09-11T13:45:48.877Z,20.75
2022-09-11T13:46:52.155Z,20.80
2022-09-11T13:47:55.248Z,20.93
2022-09-11T13:49:25.069Z,21.01
2022-09-11T13:50:27.549Z,20.93
2022-09-11T13:51:31.267Z,20.56
2022-09-11T13:52:35.628Z,20.41
2022-09-11T13:53:37.549Z,20.47
2022-09-11T13:54:59.274Z,20.68
2022-09-11T13:56:00.974Z,20.98
2022-09-11T13:57:03.031Z,21.10
2022-09-11T13:58:23.247Z,21.13
2022-09-11T13:59:44.648Z,21.11
2022-09-11T14:00:50.459Z,20.90
2022-09-11T14:01:56.682Z,20.66
2022-09-11T14:03:00.046Z,20.43
2022-09-11T14:04:04.435Z,20.37
2022-09-11T14:05:28.375Z,20.21
2022-09-11T14:06:30.942Z,20.17
2022-09-11T14:07:41.272Z,19.95
2022-09-11T14:08:50.273Z,19.69
2022-09-11T14:10:04.247Z,19.65
2022-09-11T14:11:26.177Z,19.63
2022-09-11T14:12:29.347Z,19.33
2022-09-11T14:13:44.642Z,19.09
2022-09-11T14:14:53.090Z,18.97
2022-09-11T14:16:07.315Z,19.16
2022-09-11T14:17:11.305Z,19.29
2022-09-11T14:18:40.355Z,19.38
2022-09-11T14:19:45.871Z,19.08
2022-09-11T14:20:47.850Z,18.76
2022-09-11T14:21:51.562Z,18.71
2022-09-11T14:22:58.852Z,18.50
2022-09-11T14:24:00.815Z,18.26
2022-09-11T14:25:19.611Z,18.40
2022-09-11T14:26:32.395Z,18.57
2022-09-11T14:27:38.028Z,18.57
2022-09-11T14:28:41.045Z,18.84
2022-09-11T14:29:53.333Z,19.05
2022-09-11T14:31:13.845Z,19.22
2022-09-11T14:32:36.892Z,18.88
2022-09-11T14:33:38.886Z,18.78
2022-09-11T14:34:40.471Z,18.82
2022-09-11T14:35:46.349Z,18.85
2022-09-11T14:37:12.244Z,18.65
2022-09-11T14:38:18.043Z,18.66
2022-09-11T14:39:29.504Z,18.65
2022-09-11T14:40:31.190Z,18.75